createdAt,value
2018-12-12T00:00:00.774Z,93970.68
2018-12-12T00:02:28.208Z,93966.83
2018-12-12T00:04:55.602Z,93971.42
2018-12-12T00:07:23.255Z,93965.48
2018-12-12T00:09:50.729Z,93970.41
2018-12-12T00:12:18.107Z,93961.56
2018-12-12T00:14:45.432Z,93964.14
2018-12-12T00:17:12.835Z,93965.76
2018-12-12T00:19:40.207Z,93963.97
2018-12-12T00:22:07.578Z,93963.48
2018-12-12T00:24:34.900Z,93961.69
2018-12-12T00:27:02.308Z,93960.23
2018-12-12T00:29:29.630Z,93958.69
2018-12-12T00:31:56.982Z,93954.31
2018-12-12T00:34:24.336Z,93955.58
2018-12-12T00:36:51.713Z,93951.52
2018-12-12T00:39:19.085Z,93957.85
2018-12-12T00:41:46.465Z,93959.70
2018-12-12T00:44:13.835Z,93957.48
2018-12-12T00:46:41.507Z,93957.14
2018-12-12T00:49:08.945Z,93957.05
2018-12-12T00:51:36.531Z,93957.53
2018-12-12T00:54:03.914Z,93957.05
2018-12-12T00:56:31.212Z,93953.20
2018-12-12T00:58:58.553Z,93962.67
2018-12-12T01:01:25.948Z,93965.30
2018-12-12T01:03:53.385Z,93959.66
2018-12-12T01:06:20.722Z,93957.11
2018-12-12T01:08:48.073Z,93959.95
2018-12-12T01:11:20.889Z,93963.77
2018-12-12T01:13:48.284Z,93962.89
2018-12-12T01:16:15.707Z,93962.86
2018-12-12T01:18:43.179Z,93967.61
2018-12-12T01:21:10.526Z,93973.06
2018-12-12T01:23:37.913Z,93973.03
2018-12-12T01:26:05.268Z,93970.52
2018-12-12T01:28:32.645Z,93965.92
2018-12-12T01:30:59.982Z,93969.22
2018-12-12T01:33:27.360Z,93962.78
2018-12-12T01:35:54.705Z,93966.88
2018-12-12T01:38:22.075Z,93969.70
2018-12-12T01:40:49.466Z,93966.68
2018-12-12T01:43:16.843Z,93962.87
2018-12-12T01:45:44.221Z,93953.22
2018-12-12T01:48:11.525Z,93954.09
2018-12-12T01:50:38.888Z,93958.70
2018-12-12T01:53:07.628Z,93955.31
2018-12-12T01:55:35.056Z,93957.37
2018-12-12T01:58:02.420Z,93955.31
2018-12-12T02:00:29.795Z,93959.89
2018-12-12T02:02:57.174Z,93959.59
2018-12-12T02:05:24.581Z,93958.90
2018-12-12T02:07:52.233Z,93960.69
2018-12-12T02:10:19.640Z,93958.66
2018-12-12T02:12:57.028Z,93958.59
2018-12-12T02:15:24.364Z,93955.61
2018-12-12T02:17:51.772Z,93957.78
2018-12-12T02:20:19.162Z,93953.30
2018-12-12T02:22:46.510Z,93949.45
2018-12-12T02:25:13.874Z,93946.03
2018-12-12T02:27:41.279Z,93949.07
2018-12-12T02:30:08.617Z,93952.53
2018-12-12T02:32:36.029Z,93941.94
2018-12-12T02:35:03.569Z,93944.00
2018-12-12T02:37:30.995Z,93946.87
2018-12-12T02:42:36.730Z,93942.50
2018-12-12T02:45:04.196Z,93941.13
2018-12-12T02:47:31.614Z,93939.41
2018-12-12T02:49:58.970Z,93943.68
2018-12-12T02:52:26.360Z,93930.64
2018-12-12T02:54:53.730Z,93928.69
2018-12-12T02:57:21.111Z,93929.03
2018-12-12T02:59:48.488Z,93924.53
2018-12-12T03:02:15.828Z,93933.66
2018-12-12T03:04:43.324Z,93929.38
2018-12-12T03:07:10.699Z,93926.87
2018-12-12T03:09:38.080Z,93922.48
2018-12-12T03:12:05.432Z,93925.72
2018-12-12T03:14:32.785Z,93931.94
2018-12-12T03:17:00.153Z,93928.20
2018-12-12T03:19:27.515Z,93928.81
2018-12-12T03:21:54.868Z,93932.66
2018-12-12T03:24:22.203Z,93933.72
2018-12-12T03:26:49.596Z,93934.98
2018-12-12T03:29:17.081Z,93935.89
2018-12-12T03:31:44.452Z,93935.78
2018-12-12T03:34:11.746Z,93938.19
2018-12-12T03:36:39.100Z,93934.14
2018-12-12T03:39:07.200Z,93934.63
2018-12-12T03:41:34.582Z,93938.41
2018-12-12T03:44:01.965Z,93930.86
2018-12-12T03:46:29.425Z,93926.17
2018-12-12T03:48:56.766Z,93922.39
2018-12-12T03:51:24.138Z,93920.02
2018-12-12T03:53:51.462Z,93920.50
2018-12-12T03:56:18.861Z,93915.43
2018-12-12T03:58:46.230Z,93915.52
2018-12-12T04:01:13.703Z,93918.05
2018-12-12T04:03:48.956Z,93912.07
2018-12-12T04:06:16.772Z,93910.33
2018-12-12T04:08:44.173Z,93914.98
2018-12-12T04:11:11.514Z,93912.42
2018-12-12T04:13:38.914Z,93913.20
2018-12-12T04:16:06.296Z,93911.17
2018-12-12T04:18:33.655Z,93914.45
2018-12-12T04:21:00.972Z,93910.39
2018-12-12T04:23:28.379Z,93912.10
2018-12-12T04:25:55.828Z,93907.39
2018-12-12T04:28:23.199Z,93915.19
2018-12-12T04:30:50.561Z,93920.05
2018-12-12T04:33:17.938Z,93913.59
2018-12-12T04:35:45.270Z,93920.42
2018-12-12T04:38:12.695Z,93916.34
2018-12-12T04:40:40.044Z,93919.73
2018-12-12T04:43:07.486Z,93921.34
2018-12-12T04:45:34.832Z,93923.40
2018-12-12T04:48:02.178Z,93918.16
2018-12-12T04:50:29.568Z,93917.43
2018-12-12T04:52:56.915Z,93916.94
2018-12-12T04:55:24.290Z,93914.17
2018-12-12T04:57:51.750Z,93917.17
2018-12-12T05:00:19.221Z,93919.69
2018-12-12T05:02:47.261Z,93917.95
2018-12-12T05:05:14.646Z,93918.43
2018-12-12T05:07:42.025Z,93918.78
2018-12-12T05:10:09.432Z,93923.02
2018-12-12T05:12:36.924Z,93924.82
2018-12-12T05:15:04.866Z,93929.95
2018-12-12T05:17:32.220Z,93929.50
2018-12-12T05:19:59.629Z,93927.70
2018-12-12T05:22:26.974Z,93927.76
2018-12-12T05:24:54.381Z,93925.59
2018-12-12T05:27:21.780Z,93923.92
2018-12-12T05:29:49.155Z,93924.30
2018-12-12T05:32:16.518Z,93923.37
2018-12-12T05:34:43.858Z,93926.66
2018-12-12T05:37:11.264Z,93926.17
2018-12-12T05:39:38.609Z,93925.75
2018-12-12T05:42:06.025Z,93929.17
2018-12-12T05:44:33.409Z,93935.16
2018-12-12T05:47:00.826Z,93929.34
2018-12-12T05:49:28.194Z,93927.82
2018-12-12T05:51:55.599Z,93928.33
2018-12-12T05:54:23.010Z,93936.78
2018-12-12T05:56:52.491Z,93933.13
2018-12-12T05:59:19.792Z,93935.64
2018-12-12T06:01:47.154Z,93928.11
2018-12-12T06:04:14.537Z,93923.96
2018-12-12T06:06:41.891Z,93925.20
2018-12-12T06:09:09.288Z,93927.31
2018-12-12T06:11:36.677Z,93935.66
2018-12-12T06:14:04.076Z,93931.38
2018-12-12T06:16:31.495Z,93928.44
2018-12-12T06:18:58.922Z,93927.61
2018-12-12T06:21:26.336Z,93933.01
2018-12-12T06:23:53.729Z,93933.94
2018-12-12T06:26:21.099Z,93928.08
2018-12-12T06:28:48.500Z,93925.45
2018-12-12T06:31:15.874Z,93931.33
2018-12-12T06:33:43.891Z,93931.72
2018-12-12T06:36:11.271Z,93927.52
2018-12-12T06:38:38.688Z,93928.41
2018-12-12T06:41:06.016Z,93932.70
2018-12-12T06:43:33.466Z,93928.53
2018-12-12T06:46:00.809Z,93933.13
2018-12-12T06:48:28.216Z,93928.58
2018-12-12T06:50:55.586Z,93928.20
2018-12-12T06:53:22.956Z,93923.16
2018-12-12T06:55:50.376Z,93922.30
2018-12-12T06:58:17.775Z,93925.27
2018-12-12T07:00:45.149Z,93929.42
2018-12-12T07:03:12.599Z,93929.47
2018-12-12T07:05:40.004Z,93929.91
2018-12-12T07:08:07.366Z,93934.14
2018-12-12T07:10:34.736Z,93925.78
2018-12-12T07:13:02.073Z,93926.22
2018-12-12T07:15:29.476Z,93932.48
2018-12-12T07:17:56.852Z,93937.05
2018-12-12T07:20:24.240Z,93933.28
2018-12-12T07:22:51.599Z,93930.75
2018-12-12T07:25:19.009Z,93940.05
2018-12-12T07:27:46.362Z,93938.78
2018-12-12T07:30:13.735Z,93943.36
2018-12-12T07:32:41.261Z,93940.39
2018-12-12T07:35:08.670Z,93937.10
2018-12-12T07:37:36.078Z,93939.20
2018-12-12T07:40:03.765Z,93938.72
2018-12-12T07:42:31.186Z,93940.81
2018-12-12T07:44:58.610Z,93942.96
2018-12-12T07:47:25.997Z,93937.13
2018-12-12T07:49:53.398Z,93940.97
2018-12-12T07:52:20.802Z,93941.87
2018-12-12T07:54:48.180Z,93937.71
2018-12-12T07:57:15.556Z,93938.17
2018-12-12T07:59:42.972Z,93938.14
2018-12-12T08:02:10.331Z,93936.52
2018-12-12T08:04:37.642Z,93941.61
2018-12-12T08:07:05.088Z,93936.19
2018-12-12T08:09:32.479Z,93938.28
2018-12-12T08:11:59.884Z,93941.19
2018-12-12T08:14:27.285Z,93941.57
2018-12-12T08:16:54.655Z,93943.67
2018-12-12T08:19:21.989Z,93949.18
2018-12-12T08:21:49.395Z,93939.11
2018-12-12T08:24:16.785Z,93934.95
2018-12-12T08:26:44.236Z,93936.66
2018-12-12T08:29:11.743Z,93935.83
2018-12-12T08:31:39.156Z,93937.94
2018-12-12T08:34:06.576Z,93939.58
2018-12-12T08:36:33.942Z,93943.33
2018-12-12T08:39:01.349Z,93941.66
2018-12-12T08:41:28.731Z,93947.12
2018-12-12T08:43:56.182Z,93942.03
2018-12-12T08:46:23.561Z,93939.59
2018-12-12T08:48:51.029Z,93940.86
2018-12-12T08:51:18.447Z,93936.28
2018-12-12T08:53:45.839Z,93935.47
2018-12-12T08:56:13.224Z,93939.70
2018-12-12T08:58:40.623Z,93941.83
2018-12-12T09:01:07.994Z,93939.77
2018-12-12T09:03:35.400Z,93940.67
2018-12-12T09:06:02.741Z,93944.06
2018-12-12T09:08:30.166Z,93939.87
2018-12-12T09:10:57.522Z,93942.00
2018-12-12T09:13:24.902Z,93942.43
2018-12-12T09:15:52.318Z,93944.97
2018-12-12T09:18:19.726Z,93947.09
2018-12-12T09:20:47.114Z,93948.78
2018-12-12T09:23:14.480Z,93956.80
2018-12-12T09:25:41.940Z,93958.10
2018-12-12T09:28:09.316Z,93947.98
2018-12-12T09:30:36.721Z,93945.44
2018-12-12T09:33:04.062Z,93942.48
2018-12-12T09:35:31.553Z,93944.59
2018-12-12T09:37:58.945Z,93946.28
2018-12-12T09:40:26.344Z,93947.95
2018-12-12T09:42:53.814Z,93943.75
2018-12-12T09:45:21.813Z,93943.31
2018-12-12T09:47:49.545Z,93937.44
2018-12-12T09:50:17.153Z,93931.94
2018-12-12T09:52:44.565Z,93930.66
2018-12-12T09:55:11.940Z,93927.73
2018-12-12T09:57:39.338Z,93929.83
2018-12-12T10:00:06.791Z,93931.09
2018-12-12T10:02:34.200Z,93927.30
2018-12-12T10:05:01.639Z,93926.87
2018-12-12T10:07:29.088Z,93928.13
2018-12-12T10:09:56.548Z,93924.72
2018-12-12T10:12:23.990Z,93923.05
2018-12-12T10:14:51.420Z,93928.13
2018-12-12T10:17:18.806Z,93922.26
2018-12-12T10:19:46.196Z,93922.25
2018-12-12T10:22:13.569Z,93921.84
2018-12-12T10:24:40.976Z,93920.56
2018-12-12T10:27:08.376Z,93921.41
2018-12-12T10:29:35.827Z,93921.41
2018-12-12T10:32:03.259Z,93918.05
2018-12-12T10:34:30.630Z,93909.20
2018-12-12T10:36:58.046Z,93910.44
2018-12-12T10:39:25.452Z,93905.81
2018-12-12T10:41:52.828Z,93899.47
2018-12-12T10:44:20.227Z,93894.41
2018-12-12T10:46:47.603Z,93891.45
2018-12-12T10:49:15.046Z,93891.81
2018-12-12T10:51:42.447Z,93886.66
2018-12-12T10:54:09.881Z,93890.84
2018-12-12T10:56:37.292Z,93887.02
2018-12-12T10:59:04.751Z,93887.48
2018-12-12T11:01:37.810Z,93888.00
2018-12-12T11:04:05.286Z,93891.83
2018-12-12T11:06:32.698Z,93888.91
2018-12-12T11:09:00.054Z,93888.52
2018-12-12T11:11:27.475Z,93895.69
2018-12-12T11:13:54.861Z,93890.64
2018-12-12T11:16:22.263Z,93887.28
2018-12-12T11:18:49.651Z,93888.94
2018-12-12T11:21:17.162Z,93888.97
2018-12-12T11:23:44.592Z,93883.91
2018-12-12T11:26:12.042Z,93882.22
2018-12-12T11:28:39.448Z,93885.59
2018-12-12T11:31:06.900Z,93884.33
2018-12-12T11:33:34.311Z,93885.56
2018-12-12T11:36:01.731Z,93879.22
2018-12-12T11:38:29.086Z,93872.88
2018-12-12T11:40:56.517Z,93880.05
2018-12-12T11:43:23.911Z,93875.00
2018-12-12T11:45:51.325Z,93874.16
2018-12-12T11:48:18.750Z,93868.23
2018-12-12T11:50:46.107Z,93859.77
2018-12-12T11:53:13.540Z,93845.31
2018-12-12T11:55:40.903Z,93849.96
2018-12-12T11:58:08.271Z,93851.33
2018-12-12T12:00:35.656Z,93845.04
2018-12-12T12:03:03.079Z,93845.46
2018-12-12T12:05:30.565Z,93839.56
2018-12-12T12:07:57.989Z,93844.69
2018-12-12T12:10:25.352Z,93848.92
2018-12-12T12:12:52.757Z,93845.14
2018-12-12T12:15:20.130Z,93845.94
2018-12-12T12:17:47.496Z,93838.33
2018-12-12T12:20:14.921Z,93834.14
2018-12-12T12:22:42.372Z,93834.13
2018-12-12T12:25:09.787Z,93831.98
2018-12-12T12:27:37.132Z,93836.18
2018-12-12T12:30:05.315Z,93830.29
2018-12-12T12:32:32.716Z,93833.69
2018-12-12T12:35:00.234Z,93832.00
2018-12-12T12:37:27.717Z,93826.53
2018-12-12T12:39:55.087Z,93829.09
2018-12-12T12:42:22.521Z,93828.66
2018-12-12T12:44:49.950Z,93826.14
2018-12-12T12:47:17.341Z,93819.83
2018-12-12T12:49:44.806Z,93819.80
2018-12-12T12:52:12.168Z,93818.41
2018-12-12T12:54:39.567Z,93809.33
2018-12-12T12:57:06.957Z,93803.95
2018-12-12T12:59:34.412Z,93808.48
2018-12-12T13:02:01.822Z,93807.58
2018-12-12T13:04:29.218Z,93810.64
2018-12-12T13:06:56.632Z,93811.11
2018-12-12T13:09:23.988Z,93808.59
2018-12-12T13:11:51.428Z,93811.95
2018-12-12T13:14:18.856Z,93806.42
2018-12-12T13:16:46.250Z,93802.88
2018-12-12T13:19:13.631Z,93795.70
2018-12-12T13:21:41.025Z,93794.52
2018-12-12T13:24:08.426Z,93794.01
2018-12-12T13:26:35.861Z,93796.17
2018-12-12T13:29:03.227Z,93799.25
2018-12-12T13:31:30.667Z,93797.48
2018-12-12T13:33:58.046Z,93797.59
2018-12-12T13:36:25.482Z,93791.42
2018-12-12T13:38:52.828Z,93798.77
2018-12-12T13:41:20.225Z,93790.25
2018-12-12T13:43:47.703Z,93792.14
2018-12-12T13:46:15.108Z,93788.09
2018-12-12T13:48:42.534Z,93795.51
2018-12-12T13:51:09.919Z,93794.00
2018-12-12T13:53:37.364Z,93794.52
2018-12-12T13:56:04.722Z,93792.48
2018-12-12T13:58:32.204Z,93793.73
2018-12-12T14:00:59.567Z,93792.89
2018-12-12T14:03:26.995Z,93795.86
2018-12-12T14:05:54.383Z,93790.38
2018-12-12T14:08:21.822Z,93785.72
2018-12-12T14:10:49.227Z,93785.70
2018-12-12T14:13:16.605Z,93782.77
2018-12-12T14:15:44.022Z,93788.61
2018-12-12T14:18:11.424Z,93785.65
2018-12-12T14:20:38.863Z,93786.08
2018-12-12T14:23:06.432Z,93788.56
2018-12-12T14:25:33.792Z,93782.67
2018-12-12T14:28:01.167Z,93784.33
2018-12-12T14:30:28.592Z,93785.17
2018-12-12T14:32:55.997Z,93781.81
2018-12-12T14:35:23.439Z,93778.46
2018-12-12T14:37:50.798Z,93776.78
2018-12-12T14:40:18.211Z,93773.02
2018-12-12T14:42:45.633Z,93773.02
2018-12-12T14:45:13.047Z,93765.87
2018-12-12T14:47:40.427Z,93767.99
2018-12-12T14:50:08.006Z,93765.88
2018-12-12T14:52:35.385Z,93764.20
2018-12-12T14:55:02.789Z,93767.57
2018-12-12T14:57:30.230Z,93773.89
2018-12-12T14:59:57.657Z,93765.91
2018-12-12T15:02:25.088Z,93766.33
2018-12-12T15:04:52.563Z,93766.30
2018-12-12T15:07:20.023Z,93767.14
2018-12-12T15:09:47.402Z,93768.40
2018-12-12T15:12:14.832Z,93766.72
2018-12-12T15:14:42.367Z,93760.81
2018-12-12T15:17:09.852Z,93757.02
2018-12-12T15:19:37.227Z,93764.14
2018-12-12T15:22:04.907Z,93767.90
2018-12-12T15:24:32.295Z,93755.28
2018-12-12T15:26:59.707Z,93757.80
2018-12-12T15:29:27.087Z,93759.06
2018-12-12T15:31:54.617Z,93760.77
2018-12-12T15:34:22.044Z,93759.13
2018-12-12T15:36:49.414Z,93764.58
2018-12-12T15:39:16.851Z,93756.99
2018-12-12T15:41:44.274Z,93754.44
2018-12-12T15:44:11.714Z,93764.11
2018-12-12T15:46:39.092Z,93756.93
2018-12-12T15:49:06.492Z,93761.96
2018-12-12T15:51:33.987Z,93760.28
2018-12-12T15:54:01.391Z,93756.06
2018-12-12T15:56:28.745Z,93765.34
2018-12-12T15:58:56.214Z,93759.49
2018-12-12T16:01:23.577Z,93754.44
2018-12-12T16:03:50.966Z,93757.38
2018-12-12T16:06:18.357Z,93759.91
2018-12-12T16:08:45.778Z,93756.13
2018-12-12T16:11:13.194Z,93756.94
2018-12-12T16:13:40.629Z,93751.06
2018-12-12T16:16:08.032Z,93756.11
2018-12-12T16:18:35.504Z,93757.31
2018-12-12T16:21:03.050Z,93754.40
2018-12-12T16:23:30.408Z,93748.97
2018-12-12T16:25:57.851Z,93748.56
2018-12-12T16:28:25.263Z,93746.86
2018-12-12T16:30:52.730Z,93748.55
2018-12-12T16:33:20.136Z,93752.34
2018-12-12T16:35:47.594Z,93756.56
2018-12-12T16:38:14.977Z,93742.25
2018-12-12T16:40:42.385Z,93748.16
2018-12-12T16:43:09.824Z,93751.50
2018-12-12T16:45:37.280Z,93753.16
2018-12-12T16:48:04.784Z,93747.66
2018-12-12T16:50:32.209Z,93747.66
2018-12-12T16:52:59.642Z,93741.78
2018-12-12T16:55:27.035Z,93741.77
2018-12-12T16:57:54.417Z,93748.06
2018-12-12T17:00:21.856Z,93747.23
2018-12-12T17:02:49.292Z,93744.28
2018-12-12T17:05:16.748Z,93747.65
2018-12-12T17:07:44.160Z,93743.41
2018-12-12T17:10:11.539Z,93737.52
2018-12-12T17:12:41.082Z,93742.16
2018-12-12T17:15:08.637Z,93737.13
2018-12-12T17:17:36.105Z,93735.85
2018-12-12T17:20:04.285Z,93737.09
2018-12-12T17:22:31.772Z,93735.82
2018-12-12T17:24:59.188Z,93737.94
2018-12-12T17:27:26.636Z,93730.38
2018-12-12T17:29:54.053Z,93728.28
2018-12-12T17:32:21.443Z,93729.13
2018-12-12T17:34:48.850Z,93725.77
2018-12-12T17:37:16.300Z,93725.80
2018-12-12T17:42:22.604Z,93727.48
2018-12-12T17:44:50.005Z,93727.46
2018-12-12T17:47:17.523Z,93718.59
2018-12-12T17:49:44.948Z,93723.25
2018-12-12T17:52:12.314Z,93724.10
2018-12-12T17:54:39.743Z,93718.59
2018-12-12T17:57:07.084Z,93723.23
2018-12-12T17:59:34.498Z,93719.03
2018-12-12T18:02:02.055Z,93715.67
2018-12-12T18:04:29.844Z,93718.18
2018-12-12T18:06:57.225Z,93715.67
2018-12-12T18:09:24.704Z,93713.55
2018-12-12T18:11:52.137Z,93716.94
2018-12-12T18:14:20.548Z,93715.23
2018-12-12T18:16:47.953Z,93716.48
2018-12-12T18:19:15.359Z,93717.73
2018-12-12T18:21:42.733Z,93719.45
2018-12-12T18:24:10.149Z,93713.16
2018-12-12T18:26:37.620Z,93716.08
2018-12-12T18:29:05.014Z,93714.41
2018-12-12T18:31:32.507Z,93709.39
2018-12-12T18:33:59.859Z,93714.86
2018-12-12T18:36:27.289Z,93710.67
2018-12-12T18:38:54.684Z,93714.02
2018-12-12T18:41:22.095Z,93714.02
2018-12-12T18:43:49.497Z,93710.23
2018-12-12T18:46:16.904Z,93709.39
2018-12-12T18:48:44.355Z,93708.09
2018-12-12T18:51:11.824Z,93707.23
2018-12-12T18:53:39.223Z,93711.45
2018-12-12T18:56:06.647Z,93708.92
2018-12-12T18:58:34.080Z,93711.89
2018-12-12T19:01:01.473Z,93717.78
2018-12-12T19:03:28.939Z,93715.66
2018-12-12T19:05:56.349Z,93719.91
2018-12-12T19:08:23.827Z,93713.14
2018-12-12T19:10:51.245Z,93714.83
2018-12-12T19:13:18.645Z,93714.02
2018-12-12T19:15:46.023Z,93708.52
2018-12-12T19:18:13.476Z,93709.77
2018-12-12T19:20:40.896Z,93705.56
2018-12-12T19:23:08.345Z,93704.72
2018-12-12T19:25:35.735Z,93706.83
2018-12-12T19:28:03.223Z,93708.09
2018-12-12T19:30:30.665Z,93706.41
2018-12-12T19:32:58.069Z,93700.48
2018-12-12T19:35:25.510Z,93701.35
2018-12-12T19:37:52.976Z,93697.14
2018-12-12T19:40:20.378Z,93701.38
2018-12-12T19:42:47.774Z,93700.52
2018-12-12T19:45:15.256Z,93698.40
2018-12-12T19:47:42.679Z,93701.73
2018-12-12T19:50:10.297Z,93701.71
2018-12-12T19:52:37.714Z,93696.29
2018-12-12T19:55:05.268Z,93697.58
2018-12-12T19:57:32.675Z,93692.91
2018-12-12T20:00:00.130Z,93689.97
2018-12-12T20:02:27.542Z,93690.81
2018-12-12T20:04:55.034Z,93694.12
2018-12-12T20:07:22.450Z,93693.75
2018-12-12T20:09:49.901Z,93694.14
2018-12-12T20:12:17.284Z,93688.23
2018-12-12T20:14:44.715Z,93680.72
2018-12-12T20:17:12.104Z,93684.91
2018-12-12T20:19:39.541Z,93690.36
2018-12-12T20:22:06.957Z,93691.63
2018-12-12T20:24:34.349Z,93682.82
2018-12-12T20:27:01.733Z,93684.48
2018-12-12T20:29:29.127Z,93680.68
2018-12-12T20:31:57.551Z,93671.82
2018-12-12T20:34:24.996Z,93678.97
2018-12-12T20:36:52.816Z,93676.84
2018-12-12T20:39:20.224Z,93667.63
2018-12-12T20:41:47.690Z,93676.88
2018-12-12T20:44:16.555Z,93675.14
2018-12-12T20:46:44.129Z,93670.95
2018-12-12T20:49:11.506Z,93667.56
2018-12-12T20:51:43.890Z,93659.53
2018-12-12T20:54:15.335Z,93660.84
2018-12-12T20:56:46.994Z,93658.73
2018-12-12T20:59:19.095Z,93660.79
2018-12-12T21:01:46.695Z,93659.89
2018-12-12T21:04:14.145Z,93659.50
2018-12-12T21:06:41.599Z,93656.96
2018-12-12T21:09:09.054Z,93659.83
2018-12-12T21:11:36.464Z,93654.33
2018-12-12T21:14:03.920Z,93653.04
2018-12-12T21:16:31.363Z,93648.84
2018-12-12T21:18:58.828Z,93647.62
2018-12-12T21:21:26.250Z,93647.56
2018-12-12T21:23:53.674Z,93649.63
2018-12-12T21:26:21.395Z,93648.48
2018-12-12T21:28:48.819Z,93645.48
2018-12-12T21:31:16.246Z,93645.02
2018-12-12T21:33:43.669Z,93638.73
2018-12-12T21:36:11.038Z,93635.30
2018-12-12T21:38:38.597Z,93637.48
2018-12-12T21:41:05.992Z,93628.27
2018-12-12T21:43:33.426Z,93627.86
2018-12-12T21:46:01.376Z,93626.67
2018-12-12T21:48:28.877Z,93626.31
2018-12-12T21:50:56.301Z,93619.13
2018-12-12T21:53:23.735Z,93624.20
2018-12-12T21:58:29.119Z,93618.20
2018-12-12T22:00:56.540Z,93618.13
2018-12-12T22:03:23.941Z,93610.05
2018-12-12T22:05:51.351Z,93607.91
2018-12-12T22:08:18.754Z,93610.66
2018-12-12T22:10:46.156Z,93611.95
2018-12-12T22:13:13.599Z,93609.80
2018-12-12T22:15:41.003Z,93607.20
2018-12-12T22:18:08.359Z,93600.50
2018-12-12T22:20:35.745Z,93605.05
2018-12-12T22:23:03.130Z,93602.52
2018-12-12T22:25:30.479Z,93599.16
2018-12-12T22:27:57.854Z,93602.48
2018-12-12T22:30:25.258Z,93599.50
2018-12-12T22:32:52.690Z,93600.45
2018-12-12T22:35:20.091Z,93606.84
2018-12-12T22:37:47.443Z,93604.40
2018-12-12T22:40:14.798Z,93597.00
2018-12-12T22:42:42.260Z,93595.25
2018-12-12T22:45:09.945Z,93602.03
2018-12-12T22:47:37.319Z,93604.15
2018-12-12T22:50:05.116Z,93601.65
2018-12-12T22:52:32.524Z,93599.63
2018-12-12T22:54:59.901Z,93602.45
2018-12-12T22:57:27.378Z,93599.95
2018-12-12T22:59:54.844Z,93597.84
2018-12-12T23:02:22.500Z,93600.70
2018-12-12T23:04:50.220Z,93602.67
2018-12-12T23:07:18.240Z,93597.30
2018-12-12T23:09:45.570Z,93598.45
2018-12-12T23:12:12.964Z,93599.69
2018-12-12T23:14:40.903Z,93593.50
2018-12-12T23:17:08.303Z,93585.46
2018-12-12T23:19:35.793Z,93584.23
2018-12-12T23:22:03.244Z,93588.84
2018-12-12T23:24:31.049Z,93584.20
2018-12-12T23:26:58.424Z,93581.81
2018-12-12T23:29:25.908Z,93578.88
2018-12-12T23:31:53.257Z,93578.04
2018-12-12T23:34:20.686Z,93573.88
2018-12-12T23:36:48.029Z,93576.38
2018-12-12T23:39:15.419Z,93567.47
2018-12-12T23:41:42.732Z,93571.59
2018-12-12T23:44:10.094Z,93577.38
2018-12-12T23:46:37.455Z,93573.61
2018-12-12T23:49:04.829Z,93566.88
2018-12-12T23:51:32.185Z,93572.34
2018-12-12T23:53:59.543Z,93573.16
2018-12-12T23:56:28.273Z,93569.34
2018-12-12T23:58:55.654Z,93560.56
